Time;durP1;ratioP1;P1;durP2;ratioP2;P2;SDS_P1;SDS_P2;PMS_P1;PMS_P2;Temp;Humidity;BMP_temperature;BMP_pressure;BME280_temperature;BME280_humidity;BME280_pressure;Samples;Min_cycle;Max_cycle;Signal;HPM_P1;HPM_P2
2023/11/22 00:02:15;;;;;;;11.85;9.15;;;5.50;92.30;;;;;;4992245;28;20042;-28
2023/11/22 00:04:41;;;;;;;12.35;9.23;;;5.50;92.30;;;;;;4992333;28;20057;-30
2023/11/22 00:07:06;;;;;;;13.73;10.05;;;5.50;92.30;;;;;;4992209;28;20046;-29
2023/11/22 00:09:32;;;;;;;13.75;9.00;;;5.50;92.30;;;;;;4992124;28;20057;-28
2023/11/22 00:11:59;;;;;;;12.40;8.85;;;5.40;92.30;;;;;;4992343;28;20474;-28
2023/11/22 00:14:25;;;;;;;11.38;8.25;;;5.50;92.40;;;;;;4991151;28;20106;-28
2023/11/22 00:16:51;;;;;;;12.55;8.93;;;5.40;92.40;;;;;;4992333;28;20057;-29
2023/11/22 00:19:18;;;;;;;13.63;9.60;;;5.50;92.40;;;;;;4991806;28;20025;-31
2023/11/22 00:21:44;;;;;;;11.80;8.60;;;5.40;92.40;;;;;;4992200;28;20037;-29
2023/11/22 00:24:10;;;;;;;15.80;9.57;;;5.50;92.40;;;;;;4992288;28;20060;-29
2023/11/22 00:26:35;;;;;;;13.52;9.32;;;5.50;92.40;;;;;;4992319;28;20703;-28
2023/11/22 00:29:01;;;;;;;14.13;9.80;;;5.40;92.40;;;;;;4992030;28;20049;-27
2023/11/22 00:31:26;;;;;;;14.77;9.63;;;5.40;92.30;;;;;;4991857;28;20128;-29
2023/11/22 00:33:52;;;;;;;15.10;9.25;;;5.40;92.40;;;;;;4991819;28;20038;-29
2023/11/22 00:36:17;;;;;;;12.27;9.00;;;5.40;92.40;;;;;;4991978;28;20563;-28
2023/11/22 00:38:43;;;;;;;13.57;9.05;;;5.40;92.40;;;;;;4991910;28;20023;-29
2023/11/22 00:41:09;;;;;;;10.75;8.27;;;5.40;92.40;;;;;;4991732;28;20068;-32
2023/11/22 00:43:35;;;;;;;12.23;9.10;;;5.40;92.40;;;;;;4991885;28;20081;-29
2023/11/22 00:46:01;;;;;;;13.82;9.05;;;5.30;92.40;;;;;;4991864;28;20495;-29
2023/11/22 00:48:27;;;;;;;14.55;9.35;;;5.30;92.40;;;;;;4991594;28;20030;-29
2023/11/22 00:50:52;;;;;;;12.85;8.52;;;5.30;92.40;;;;;;4991744;28;20041;-29
2023/11/22 00:53:18;;;;;;;13.80;9.30;;;5.30;92.40;;;;;;4991730;28;20035;-29
2023/11/22 00:55:43;;;;;;;12.05;8.77;;;5.30;92.40;;;;;;4991771;28;20109;-29
2023/11/22 00:58:09;;;;;;;14.20;8.95;;;5.30;92.40;;;;;;4990377;28;20121;-30
2023/11/22 01:00:35;;;;;;;11.48;8.30;;;5.30;92.40;;;;;;4994513;28;20537;-30
2023/11/22 01:03:00;;;;;;;13.73;8.27;;;5.30;92.50;;;;;;4995465;28;20030;-29
2023/11/22 01:05:26;;;;;;;14.68;8.80;;;5.30;92.50;;;;;;4995473;28;20030;-32
2023/11/22 01:07:51;;;;;;;14.27;8.52;;;5.30;92.50;;;;;;4995367;28;20031;-29
2023/11/22 01:10:17;;;;;;;11.80;8.02;;;5.30;92.50;;;;;;4995184;28;20022;-29
2023/11/22 01:12:44;;;;;;;11.40;8.15;;;5.30;92.50;;;;;;4995190;28;20042;-28
2023/11/22 01:15:09;;;;;;;11.48;8.23;;;5.30;92.40;;;;;;4995239;28;20118;-28
2023/11/22 01:17:35;;;;;;;12.82;7.97;;;5.30;92.40;;;;;;4995157;28;20054;-28
2023/11/22 01:20:02;;;;;;;11.73;8.07;;;5.30;92.40;;;;;;4995070;28;20022;-29
2023/11/22 01:22:28;;;;;;;11.25;7.95;;;5.30;92.40;;;;;;4995097;28;20089;-31
2023/11/22 01:24:53;;;;;;;12.07;7.95;;;5.30;92.40;;;;;;4995098;28;20438;-31
2023/11/22 01:27:19;;;;;;;12.52;8.05;;;5.30;92.40;;;;;;4995035;28;20086;-27
2023/11/22 01:29:45;;;;;;;11.93;7.85;;;5.20;92.40;;;;;;4994605;28;20057;-28
2023/11/22 01:32:11;;;;;;;10.93;8.02;;;5.20;92.40;;;;;;4994967;28;20114;-28
2023/11/22 01:34:36;;;;;;;13.45;7.65;;;5.20;92.30;;;;;;4995082;28;20048;-28
2023/11/22 01:37:03;;;;;;;11.50;8.23;;;5.20;92.30;;;;;;4994730;28;20034;-28
2023/11/22 01:39:28;;;;;;;12.00;8.15;;;5.20;92.30;;;;;;4994728;28;20142;-31
2023/11/22 01:41:55;;;;;;;11.00;8.48;;;5.20;92.30;;;;;;4994812;28;20035;-29
2023/11/22 01:44:20;;;;;;;10.52;7.85;;;5.20;92.30;;;;;;4994877;28;20136;-29
2023/11/22 01:46:46;;;;;;;12.20;8.25;;;5.20;92.30;;;;;;4994581;28;20063;-34
2023/11/22 01:49:12;;;;;;;11.48;7.90;;;5.20;92.30;;;;;;4994695;28;20509;-27
2023/11/22 01:51:39;;;;;;;12.20;7.40;;;5.10;92.30;;;;;;4994629;28;20045;-29
2023/11/22 01:54:07;;;;;;;12.30;8.45;;;5.10;92.30;;;;;;4994425;28;20123;-29
2023/11/22 01:56:37;;;;;;;9.63;7.45;;;5.10;92.30;;;;;;4994537;28;20034;-29
2023/11/22 01:59:04;;;;;;;11.35;7.53;;;5.10;92.30;;;;;;4994419;28;20022;-30
2023/11/22 02:01:31;;;;;;;13.60;8.18;;;5.10;92.30;;;;;;4994015;28;20108;-30
2023/11/22 02:03:57;;;;;;;10.15;7.75;;;5.10;92.30;;;;;;4993974;28;20711;-31
2023/11/22 02:06:23;;;;;;;11.65;7.85;;;5.10;92.30;;;;;;4994411;28;20085;-29
2023/11/22 02:08:49;;;;;;;11.25;8.07;;;5.10;92.30;;;;;;4994277;28;20074;-29
2023/11/22 02:11:22;;;;;;;12.90;8.55;;;5.10;92.30;;;;;;4992893;28;20348;-29
2023/11/22 02:13:49;;;;;;;11.65;7.78;;;5.10;92.30;;;;;;4994292;28;20027;-30
2023/11/22 02:16:16;;;;;;;11.63;8.32;;;5.00;92.30;;;;;;4994379;28;20037;-28
2023/11/22 02:18:44;;;;;;;11.73;7.80;;;5.00;92.30;;;;;;4994227;28;20065;-33
2023/11/22 02:21:10;;;;;;;12.15;7.70;;;5.00;92.30;;;;;;4993773;28;20022;-29
2023/11/22 02:23:36;;;;;;;11.95;7.50;;;5.00;92.30;;;;;;4994235;28;20037;-28
2023/11/22 02:26:02;;;;;;;11.63;7.85;;;5.00;92.30;;;;;;4994132;28;20418;-31
2023/11/22 02:28:28;;;;;;;12.07;7.93;;;4.90;92.30;;;;;;4993837;28;20035;-29
2023/11/22 02:30:54;;;;;;;11.15;8.00;;;4.90;92.30;;;;;;4993678;28;20026;-31
2023/11/22 02:33:20;;;;;;;11.85;7.80;;;4.90;92.30;;;;;;4993995;28;20031;-35
2023/11/22 02:35:45;;;;;;;11.23;7.60;;;4.90;92.30;;;;;;4993971;28;20033;-32
2023/11/22 02:38:11;;;;;;;11.45;7.90;;;4.90;92.30;;;;;;4993659;28;20022;-30
2023/11/22 02:40:37;;;;;;;12.68;8.57;;;4.90;92.30;;;;;;4993601;28;20027;-29
2023/11/22 02:43:07;;;;;;;12.05;8.20;;;4.90;92.30;;;;;;4993902;28;20486;-29
2023/11/22 02:45:33;;;;;;;10.60;7.57;;;4.90;92.30;;;;;;4993853;28;20100;-29
2023/11/22 02:48:01;;;;;;;13.07;7.72;;;4.80;92.40;;;;;;4993586;28;20475;-34
2023/11/22 02:50:27;;;;;;;9.43;7.00;;;4.90;92.40;;;;;;4992106;28;20368;-29
2023/11/22 02:52:53;;;;;;;11.35;7.60;;;4.80;92.40;;;;;;4993689;28;20038;-28
2023/11/22 02:55:19;;;;;;;11.25;7.07;;;4.80;92.40;;;;;;4993374;28;20479;-29
2023/11/22 02:57:45;;;;;;;11.35;7.95;;;4.80;92.40;;;;;;4993941;28;20030;-30
2023/11/22 03:00:14;;;;;;;11.98;7.97;;;4.80;92.40;;;;;;4993142;28;20747;-29
2023/11/22 03:02:44;;;;;;;10.93;7.57;;;4.80;92.40;;;;;;4993356;28;20411;-29
2023/11/22 03:05:10;;;;;;;12.60;7.85;;;4.80;92.40;;;;;;4993266;28;20073;-29
2023/11/22 03:07:36;;;;;;;13.57;8.45;;;4.80;92.40;;;;;;4993478;28;20019;-29
2023/11/22 03:10:03;;;;;;;11.35;7.65;;;4.80;92.40;;;;;;4992946;28;20026;-28
2023/11/22 03:12:28;;;;;;;11.70;7.75;;;4.80;92.40;;;;;;4992849;28;20536;-30
2023/11/22 03:14:58;;;;;;;12.05;7.45;;;4.70;92.40;;;;;;4993083;28;20105;-29
2023/11/22 03:17:24;;;;;;;11.73;7.72;;;4.70;92.40;;;;;;4992816;28;20022;-28
2023/11/22 03:19:50;;;;;;;11.52;7.38;;;4.70;92.50;;;;;;4992836;28;20030;-29
2023/11/22 03:22:15;;;;;;;9.95;7.28;;;4.70;92.50;;;;;;4992507;28;20030;-32
2023/11/22 03:24:41;;;;;;;12.18;7.55;;;4.70;92.50;;;;;;4993290;28;20057;-28
2023/11/22 03:27:06;;;;;;;11.15;7.13;;;4.70;92.50;;;;;;4992944;28;20106;-30
2023/11/22 03:29:33;;;;;;;11.85;7.10;;;4.70;92.50;;;;;;4992503;28;20141;-29
2023/11/22 03:31:59;;;;;;;11.77;8.18;;;4.70;92.50;;;;;;4992694;28;20030;-29
2023/11/22 03:34:24;;;;;;;12.15;7.32;;;4.70;92.50;;;;;;4992714;28;20041;-29
2023/11/22 03:36:50;;;;;;;10.52;7.35;;;4.70;92.50;;;;;;4992710;28;20150;-30
2023/11/22 03:39:16;;;;;;;11.13;7.78;;;4.70;92.50;;;;;;4992503;28;20046;-30
2023/11/22 03:41:42;;;;;;;11.98;7.50;;;4.70;92.50;;;;;;4992684;28;20037;-30
2023/11/22 03:44:08;;;;;;;12.60;8.35;;;4.60;92.40;;;;;;4992606;28;20093;-32
2023/11/22 03:46:35;;;;;;;13.60;8.80;;;4.60;92.40;;;;;;4992647;28;20041;-32
2023/11/22 03:49:06;;;;;;;11.10;7.53;;;4.60;92.30;;;;;;4992617;28;20398;-32
2023/11/22 03:51:32;;;;;;;12.10;8.10;;;4.60;92.30;;;;;;4992697;28;20030;-33
2023/11/22 03:53:58;;;;;;;12.38;7.90;;;4.50;92.30;;;;;;4992556;28;20030;-29
2023/11/22 03:56:23;;;;;;;12.25;8.00;;;4.50;92.30;;;;;;4992608;28;20487;-29
2023/11/22 03:58:49;;;;;;;11.50;7.57;;;4.50;92.30;;;;;;4991071;28;20030;-28
2023/11/22 04:01:16;;;;;;;12.85;8.52;;;4.40;92.40;;;;;;4992114;28;20022;-29
2023/11/22 04:03:42;;;;;;;11.88;7.40;;;4.40;92.40;;;;;;4992426;28;20064;-32
2023/11/22 04:06:07;;;;;;;11.23;7.68;;;4.40;92.40;;;;;;4992243;28;20096;-30
2023/11/22 04:08:33;;;;;;;12.40;7.85;;;4.40;92.40;;;;;;4992321;28;20487;-29
2023/11/22 04:10:59;;;;;;;11.63;7.93;;;4.40;92.40;;;;;;4992128;28;20422;-30
2023/11/22 04:13:24;;;;;;;11.98;7.88;;;4.40;92.40;;;;;;4992493;28;20497;-28
2023/11/22 04:15:51;;;;;;;12.65;7.97;;;4.40;92.40;;;;;;4992208;28;20061;-29
2023/11/22 04:18:16;;;;;;;11.52;7.43;;;4.40;92.40;;;;;;4991953;28;20041;-30
2023/11/22 04:20:42;;;;;;;10.52;7.60;;;4.40;92.40;;;;;;4991909;28;20018;-30
2023/11/22 04:23:10;;;;;;;11.40;7.60;;;4.40;92.40;;;;;;4992135;28;20030;-29
2023/11/22 04:25:36;;;;;;;11.02;6.95;;;4.30;92.40;;;;;;4992233;28;20030;-28
2023/11/22 04:28:02;;;;;;;11.73;7.45;;;4.40;92.40;;;;;;4992500;28;20459;-30
2023/11/22 04:30:28;;;;;;;11.75;8.02;;;4.30;92.40;;;;;;4991753;28;20043;-29
2023/11/22 04:32:54;;;;;;;11.50;7.32;;;4.40;92.40;;;;;;4992025;28;20538;-36
2023/11/22 04:35:20;;;;;;;11.45;7.97;;;4.30;92.40;;;;;;4995032;28;20355;-29
2023/11/22 04:37:46;;;;;;;12.88;8.13;;;4.30;92.40;;;;;;4996000;28;20399;-29
2023/11/22 04:40:14;;;;;;;13.32;8.43;;;4.30;92.40;;;;;;4995971;28;20027;-29
2023/11/22 04:42:40;;;;;;;12.32;7.70;;;4.30;92.40;;;;;;4995857;28;20030;-29
2023/11/22 04:45:06;;;;;;;11.40;7.53;;;4.30;92.40;;;;;;4996080;28;20108;-30
2023/11/22 04:47:32;;;;;;;13.35;7.93;;;4.30;92.40;;;;;;4995884;28;20030;-29
2023/11/22 04:49:57;;;;;;;12.80;8.10;;;4.30;92.40;;;;;;4995938;28;20381;-33
2023/11/22 04:52:23;;;;;;;12.57;7.68;;;4.30;92.40;;;;;;4995961;28;20027;-29
2023/11/22 04:54:49;;;;;;;14.60;8.15;;;4.30;92.40;;;;;;4995816;28;20208;-31
2023/11/22 04:57:15;;;;;;;14.80;8.90;;;4.30;92.40;;;;;;4995550;28;20022;-30
2023/11/22 04:59:40;;;;;;;13.35;7.97;;;4.30;92.40;;;;;;4995588;28;20498;-29
2023/11/22 05:02:07;;;;;;;14.10;8.23;;;4.30;92.40;;;;;;4995541;28;20106;-30
2023/11/22 05:04:32;;;;;;;15.23;8.65;;;4.30;92.40;;;;;;4995442;28;20037;-29
2023/11/22 05:06:58;;;;;;;13.02;8.10;;;4.30;92.40;;;;;;4995539;28;20030;-31
2023/11/22 05:09:24;;;;;;;13.00;7.95;;;4.30;92.30;;;;;;4995635;28;20026;-28
2023/11/22 05:11:49;;;;;;;12.70;8.35;;;4.30;92.30;;;;;;4995350;28;20030;-29
2023/11/22 05:14:15;;;;;;;14.68;8.95;;;4.30;92.40;;;;;;4995539;28;20180;-30
2023/11/22 05:16:40;;;;;;;14.60;8.90;;;4.20;92.40;;;;;;4995077;28;20530;-30
2023/11/22 05:19:06;;;;;;;13.05;8.65;;;4.30;92.40;;;;;;4994789;28;20026;-29
2023/11/22 05:21:32;;;;;;;14.27;9.02;;;4.30;92.30;;;;;;4995203;28;20027;-32
2023/11/22 05:23:58;;;;;;;13.70;8.43;;;4.30;92.30;;;;;;4995499;28;20026;-29
2023/11/22 05:26:24;;;;;;;12.80;8.20;;;4.40;92.40;;;;;;4995250;28;20027;-28
2023/11/22 05:28:50;;;;;;;13.40;8.20;;;4.30;92.30;;;;;;4994846;28;20499;-30
2023/11/22 05:31:16;;;;;;;13.30;8.18;;;4.30;92.30;;;;;;4994913;28;20088;-29
2023/11/22 05:33:42;;;;;;;12.18;7.68;;;4.30;92.20;;;;;;4994840;28;20050;-30
2023/11/22 05:36:08;;;;;;;14.30;9.35;;;4.40;92.20;;;;;;4995289;28;20033;-30
2023/11/22 05:38:34;;;;;;;12.10;8.27;;;4.40;92.20;;;;;;4995220;28;20030;-31
2023/11/22 05:41:00;;;;;;;14.15;8.95;;;4.40;92.20;;;;;;4994674;28;20360;-29
2023/11/22 05:43:26;;;;;;;12.73;7.93;;;4.40;92.40;;;;;;4994910;28;20064;-30
2023/11/22 05:45:53;;;;;;;12.90;8.32;;;4.40;92.10;;;;;;4994947;28;20506;-30
2023/11/22 05:48:19;;;;;;;13.00;8.07;;;4.30;92.00;;;;;;4994483;28;20105;-32
2023/11/22 05:50:45;;;;;;;12.50;7.82;;;4.30;92.00;;;;;;4994833;28;20072;-30
2023/11/22 05:53:11;;;;;;;13.93;8.18;;;4.30;92.00;;;;;;4994623;28;20026;-29
2023/11/22 05:55:37;;;;;;;12.27;8.48;;;4.30;92.00;;;;;;4994702;28;20029;-34
2023/11/22 05:58:03;;;;;;;12.32;7.97;;;4.30;92.00;;;;;;4994830;28;20506;-32
2023/11/22 06:00:29;;;;;;;13.00;8.30;;;4.30;92.00;;;;;;4994389;28;20148;-29
2023/11/22 06:02:55;;;;;;;14.23;8.65;;;4.30;91.90;;;;;;4994413;28;20030;-29
2023/11/22 06:05:21;;;;;;;12.52;7.85;;;4.30;91.90;;;;;;4994579;28;20479;-34
2023/11/22 06:07:47;;;;;;;12.52;8.40;;;4.30;91.90;;;;;;4994305;28;20054;-32
2023/11/22 06:10:14;;;;;;;14.57;9.23;;;4.20;91.90;;;;;;4994076;28;20030;-35
2023/11/22 06:12:40;;;;;;;12.13;8.30;;;4.30;91.90;;;;;;4994232;28;20045;-29
2023/11/22 06:15:06;;;;;;;13.43;8.93;;;4.30;91.90;;;;;;4994683;28;20027;-29
2023/11/22 06:17:31;;;;;;;12.30;8.05;;;4.30;91.90;;;;;;4994023;28;20034;-31
2023/11/22 06:19:57;;;;;;;13.90;8.20;;;4.30;91.90;;;;;;4994110;28;20026;-36
2023/11/22 06:22:22;;;;;;;13.20;8.57;;;4.30;91.90;;;;;;4993783;28;20041;-30
2023/11/22 06:24:48;;;;;;;11.23;8.20;;;4.40;91.90;;;;;;4993999;28;20058;-33
2023/11/22 06:27:15;;;;;;;14.02;8.30;;;4.40;91.90;;;;;;4993827;28;20033;-34
2023/11/22 06:29:44;;;;;;;12.45;8.20;;;4.40;91.80;;;;;;4993645;28;20050;-32
2023/11/22 06:32:09;;;;;;;12.20;8.23;;;4.40;91.80;;;;;;4994202;28;20053;-34
2023/11/22 06:34:36;;;;;;;11.88;7.97;;;4.30;91.80;;;;;;4993695;28;20444;-37
2023/11/22 06:37:02;;;;;;;12.05;8.35;;;4.30;91.80;;;;;;4993695;28;20479;-34
2023/11/22 06:39:27;;;;;;;12.40;8.80;;;4.30;91.80;;;;;;4993582;28;20029;-30
2023/11/22 06:41:53;;;;;;;15.82;9.02;;;4.30;91.80;;;;;;4993623;28;20049;-28
2023/11/22 06:44:18;;;;;;;15.07;9.88;;;4.40;91.90;;;;;;4993863;28;20035;-32
2023/11/22 06:46:44;;;;;;;21.20;10.43;;;4.40;91.80;;;;;;4993294;28;20035;-31
2023/11/22 06:49:10;;;;;;;14.30;9.15;;;4.40;91.80;;;;;;4993466;28;20156;-32
2023/11/22 06:51:35;;;;;;;15.27;9.80;;;4.40;91.80;;;;;;4993651;28;20060;-31
2023/11/22 06:54:01;;;;;;;13.20;8.90;;;4.40;91.80;;;;;;4993425;28;20484;-29
2023/11/22 06:56:27;;;;;;;14.48;9.40;;;4.40;91.80;;;;;;4993268;28;20109;-28
2023/11/22 06:58:53;;;;;;;13.48;8.93;;;4.40;91.90;;;;;;4992967;28;20057;-36
2023/11/22 07:01:23;;;;;;;12.00;8.23;;;4.40;91.80;;;;;;4993201;28;20042;-29
2023/11/22 07:03:49;;;;;;;13.30;8.43;;;4.40;91.80;;;;;;4993438;28;20058;-33
2023/11/22 07:06:14;;;;;;;11.75;7.72;;;4.40;91.80;;;;;;4993109;28;20085;-29
2023/11/22 07:08:40;;;;;;;11.20;7.75;;;4.50;91.90;;;;;;4992957;28;20081;-30
2023/11/22 07:11:09;;;;;;;11.25;8.23;;;4.50;91.80;;;;;;4992810;28;20037;-27
2023/11/22 07:13:38;;;;;;;12.82;8.02;;;4.50;91.80;;;;;;4993074;28;20114;-28
2023/11/22 07:16:04;;;;;;;15.80;8.13;;;4.60;91.80;;;;;;4992979;28;20027;-31
2023/11/22 07:18:31;;;;;;;12.85;7.85;;;4.60;91.80;;;;;;4992838;28;20018;-29
2023/11/22 07:20:56;;;;;;;13.07;8.63;;;4.60;91.80;;;;;;4992861;28;20521;-40
2023/11/22 07:23:27;;;;;;;13.05;8.95;;;4.70;91.80;;;;;;4992885;28;20057;-32
2023/11/22 07:25:52;;;;;;;12.25;7.90;;;4.80;91.80;;;;;;4992884;28;20121;-27
2023/11/22 07:28:18;;;;;;;13.98;8.48;;;4.80;91.80;;;;;;4992727;28;20570;-30
2023/11/22 07:30:44;;;;;;;12.13;8.25;;;4.80;91.70;;;;;;4992582;28;20030;-27
2023/11/22 07:33:10;;;;;;;12.88;8.57;;;4.80;91.70;;;;;;4992614;28;20184;-27
2023/11/22 07:35:36;;;;;;;12.38;9.02;;;4.90;91.70;;;;;;4992874;28;20085;-27
2023/11/22 07:38:03;;;;;;;12.98;8.55;;;4.90;91.70;;;;;;4992624;28;20030;-27
2023/11/22 07:40:29;;;;;;;12.70;8.40;;;4.90;91.60;;;;;;4992576;28;20046;-27
2023/11/22 07:42:54;;;;;;;12.90;8.35;;;5.00;91.70;;;;;;4992691;28;20423;-27
2023/11/22 07:45:20;;;;;;;13.77;8.77;;;5.00;91.60;;;;;;4992747;28;20391;-28
2023/11/22 07:47:47;;;;;;;11.93;8.30;;;5.10;91.60;;;;;;4992382;28;20034;-25
2023/11/22 07:50:12;;;;;;;14.48;8.50;;;5.10;91.60;;;;;;4992166;28;20027;-27
2023/11/22 07:52:40;;;;;;;15.35;8.95;;;5.10;91.60;;;;;;4991807;28;20399;-27
2023/11/22 07:55:07;;;;;;;11.63;8.20;;;5.30;91.60;;;;;;4992155;28;20446;-26
2023/11/22 07:57:34;;;;;;;13.52;8.60;;;5.30;91.50;;;;;;4991037;28;20034;-27
2023/11/22 08:00:00;;;;;;;11.70;7.85;;;5.40;91.50;;;;;;4990906;28;20053;-28
2023/11/22 08:02:26;;;;;;;14.18;9.15;;;5.40;91.40;;;;;;4991017;28;20026;-28
2023/11/22 08:04:52;;;;;;;16.17;8.93;;;5.40;91.40;;;;;;4992305;28;20030;-40
2023/11/22 08:07:18;;;;;;;14.55;8.98;;;5.40;91.30;;;;;;4992260;28;20035;-27
2023/11/22 08:09:44;;;;;;;12.95;8.73;;;5.50;91.30;;;;;;4992137;28;20034;-28
2023/11/22 08:12:11;;;;;;;13.93;8.93;;;5.50;91.30;;;;;;4992229;28;20034;-29
2023/11/22 08:14:37;;;;;;;14.77;9.27;;;5.50;91.30;;;;;;4992029;28;20120;-27
2023/11/22 08:17:03;;;;;;;15.30;9.00;;;5.50;91.30;;;;;;4992011;28;20334;-29
2023/11/22 08:19:29;;;;;;;13.55;8.60;;;5.50;91.30;;;;;;4992413;28;20540;-27
2023/11/22 08:21:55;;;;;;;13.35;8.80;;;5.50;91.30;;;;;;4992030;28;20030;-27
2023/11/22 08:24:20;;;;;;;13.55;8.48;;;5.60;91.30;;;;;;4992113;28;20566;-28
2023/11/22 08:26:46;;;;;;;12.57;8.25;;;5.60;91.30;;;;;;4992019;28;20495;-26
2023/11/22 08:29:12;;;;;;;13.30;9.00;;;5.60;91.30;;;;;;4992042;28;20042;-28
2023/11/22 08:31:37;;;;;;;11.95;8.25;;;5.70;91.30;;;;;;4992453;28;20023;-28
2023/11/22 08:34:07;;;;;;;12.65;8.32;;;5.70;91.20;;;;;;4991847;28;20117;-31
2023/11/22 08:36:35;;;;;;;12.30;7.90;;;5.80;91.20;;;;;;4990395;28;20023;-29
2023/11/22 08:39:03;;;;;;;13.82;8.00;;;5.80;91.20;;;;;;4991866;28;20030;-27
2023/11/22 08:41:30;;;;;;;11.93;8.10;;;5.90;91.20;;;;;;4991823;28;20026;-29
2023/11/22 08:43:55;;;;;;;10.73;7.85;;;5.90;91.20;;;;;;4991928;28;20487;-27
2023/11/22 08:46:21;;;;;;;12.65;8.65;;;6.00;91.20;;;;;;4991732;28;20063;-28
2023/11/22 08:48:47;;;;;;;13.32;9.32;;;6.00;91.20;;;;;;4991683;28;20516;-38
2023/11/22 08:51:13;;;;;;;10.93;8.07;;;6.00;91.10;;;;;;4991625;28;20030;-29
2023/11/22 08:53:38;;;;;;;13.70;8.38;;;6.10;91.10;;;;;;4992016;28;20157;-29
2023/11/22 08:56:05;;;;;;;13.75;9.77;;;6.10;91.10;;;;;;4991763;28;20475;-27
2023/11/22 08:58:31;;;;;;;15.85;9.88;;;6.10;91.10;;;;;;4991791;28;20494;-28
2023/11/22 09:01:00;;;;;;;13.00;9.30;;;6.10;91.10;;;;;;4991636;28;20030;-28
2023/11/22 09:03:26;;;;;;;16.05;10.27;;;6.20;91.00;;;;;;4991694;28;20084;-29
2023/11/22 09:05:53;;;;;;;17.15;10.75;;;6.20;91.00;;;;;;4991937;28;20450;-32
2023/11/22 09:08:20;;;;;;;18.58;10.35;;;6.20;91.00;;;;;;4991902;28;20023;-27
2023/11/22 09:10:46;;;;;;;14.90;10.10;;;6.20;91.00;;;;;;4991764;28;20093;-27
2023/11/22 09:13:16;;;;;;;14.23;9.52;;;6.20;91.00;;;;;;4991639;28;20026;-27
2023/11/22 09:15:45;;;;;;;16.02;10.15;;;6.20;91.00;;;;;;4991770;28;20023;-29
2023/11/22 09:18:12;;;;;;;14.65;10.30;;;6.30;91.00;;;;;;4991554;28;20086;-28
2023/11/22 09:20:38;;;;;;;16.10;10.55;;;6.30;91.00;;;;;;4993188;28;20032;-28
2023/11/22 09:23:04;;;;;;;13.40;10.30;;;6.30;90.90;;;;;;4994941;28;20117;-27
2023/11/22 09:25:30;;;;;;;16.90;10.68;;;6.40;90.90;;;;;;4995075;28;20022;-32
2023/11/22 09:27:59;;;;;;;15.65;10.57;;;6.40;90.90;;;;;;4995237;28;20027;-29
2023/11/22 09:30:34;;;;;;;14.45;9.70;;;6.40;90.90;;;;;;4994678;28;20046;-29
2023/11/22 09:33:03;;;;;;;15.10;9.80;;;6.40;90.90;;;;;;4993734;28;20534;-29
2023/11/22 09:35:31;;;;;;;15.65;11.10;;;6.40;90.90;;;;;;4994962;28;20022;-27
2023/11/22 09:37:57;;;;;;;16.15;10.20;;;6.50;90.90;;;;;;4994883;28;20479;-31
2023/11/22 09:40:23;;;;;;;15.02;10.55;;;6.50;90.80;;;;;;4995107;28;20053;-26
2023/11/22 09:42:51;;;;;;;14.98;9.52;;;6.50;90.80;;;;;;4994882;28;20019;-32
2023/11/22 09:45:21;;;;;;;15.48;10.57;;;6.50;90.80;;;;;;4993414;28;20041;-27
2023/11/22 09:47:47;;;;;;;16.20;10.80;;;6.60;90.70;;;;;;4994485;28;20112;-27
2023/11/22 09:50:43;;;;;;;14.63;10.25;;;6.70;90.70;;;;;;4994563;28;20034;-28
2023/11/22 09:53:17;;;;;;;15.40;10.23;;;6.70;90.60;;;;;;4980290;28;20027;-27
2023/11/22 09:55:44;;;;;;;15.45;10.45;;;6.70;90.60;;;;;;4994603;28;20026;-30
2023/11/22 09:58:13;;;;;;;14.38;9.93;;;6.70;90.60;;;;;;4994559;28;20487;-29
2023/11/22 10:00:41;;;;;;;15.65;9.85;;;6.80;90.60;;;;;;4994425;28;20014;-27
2023/11/22 10:03:07;;;;;;;14.20;9.52;;;6.80;90.80;;;;;;4994468;28;20125;-28
2023/11/22 10:05:33;;;;;;;16.88;10.13;;;6.90;90.50;;;;;;4994237;28;20015;-27
2023/11/22 10:08:00;;;;;;;13.02;8.68;;;6.90;90.40;;;;;;4994249;28;20029;-26
2023/11/22 10:10:26;;;;;;;12.63;8.63;;;6.90;90.40;;;;;;4994049;28;20026;-27
2023/11/22 10:12:55;;;;;;;13.82;8.43;;;7.00;90.40;;;;;;4994279;28;20026;-27
2023/11/22 10:15:22;;;;;;;13.57;9.23;;;7.00;90.40;;;;;;4994160;28;20034;-28
2023/11/22 10:18:02;;;;;;;12.73;9.15;;;7.00;90.30;;;;;;4994051;28;20422;-26
2023/11/22 10:20:39;;;;;;;14.32;9.27;;;7.00;90.30;;;;;;4994058;28;20026;-27
2023/11/22 10:23:16;;;;;;;12.73;9.20;;;7.00;90.30;;;;;;4993984;28;20033;-27
2023/11/22 10:25:52;;;;;;;14.30;9.20;;;7.10;90.30;;;;;;4993978;28;20026;-28
2023/11/22 10:28:19;;;;;;;13.15;8.63;;;7.10;90.30;;;;;;4994011;28;20046;-28
2023/11/22 10:30:49;;;;;;;11.73;8.45;;;7.20;90.20;;;;;;4993689;28;20030;-29
2023/11/22 10:33:15;;;;;;;11.48;8.43;;;7.10;90.10;;;;;;4992726;28;20030;-28
2023/11/22 10:35:48;;;;;;;13.32;8.80;;;7.20;90.20;;;;;;4993953;28;20045;-28
2023/11/22 10:38:22;;;;;;;14.15;8.65;;;7.20;90.10;;;;;;4993605;28;20022;-28
2023/11/22 10:40:49;;;;;;;13.02;8.30;;;7.30;90.10;;;;;;4992394;28;20410;-26
2023/11/22 10:43:16;;;;;;;14.30;8.73;;;7.30;90.00;;;;;;4993598;28;20018;-30
2023/11/22 10:45:48;;;;;;;11.98;7.93;;;7.30;89.90;;;;;;4993660;28;20018;-29
2023/11/22 10:48:18;;;;;;;11.48;8.23;;;7.40;89.80;;;;;;4993269;28;20033;-28
2023/11/22 10:50:44;;;;;;;10.43;7.00;;;7.40;89.60;;;;;;4993519;28;20028;-29
2023/11/22 10:53:15;;;;;;;11.38;8.25;;;7.40;89.60;;;;;;4993422;28;20159;-28
2023/11/22 10:55:45;;;;;;;10.88;8.07;;;7.40;89.40;;;;;;4993489;28;20022;-29
2023/11/22 10:58:13;;;;;;;9.52;7.38;;;7.50;89.50;;;;;;4993369;28;20022;-29
2023/11/22 11:00:41;;;;;;;9.80;7.22;;;7.50;89.40;;;;;;4992927;28;20383;-36
2023/11/22 11:03:19;;;;;;;11.13;7.20;;;7.50;89.40;;;;;;4993271;28;20022;-27
2023/11/22 11:05:54;;;;;;;12.43;8.00;;;7.60;89.20;;;;;;4993384;28;20029;-29
2023/11/22 11:08:21;;;;;;;9.65;7.25;;;7.60;89.20;;;;;;4993410;28;20102;-29
2023/11/22 11:10:51;;;;;;;11.50;7.30;;;7.60;89.20;;;;;;4993152;28;20030;-29
2023/11/22 11:13:18;;;;;;;11.60;7.68;;;7.60;89.10;;;;;;4993261;28;20498;-28
2023/11/22 11:15:45;;;;;;;10.50;7.95;;;7.60;89.00;;;;;;4993026;28;20033;-27
2023/11/22 11:18:13;;;;;;;11.02;8.00;;;7.60;89.00;;;;;;4992949;28;20045;-30
2023/11/22 11:20:59;;;;;;;11.65;8.02;;;7.50;88.90;;;;;;4992790;28;20048;-30
2023/11/22 11:23:26;;;;;;;9.88;7.32;;;7.60;89.00;;;;;;4992848;28;20080;-28
2023/11/22 11:26:08;;;;;;;11.82;7.70;;;7.50;89.00;;;;;;4992829;28;20026;-31
2023/11/22 11:28:44;;;;;;;12.63;8.10;;;7.60;89.00;;;;;;4992749;28;20062;-26
2023/11/22 11:31:10;;;;;;;10.30;7.28;;;7.70;88.90;;;;;;4993321;28;20554;-27
2023/11/22 11:33:54;;;;;;;10.77;7.43;;;7.70;88.80;;;;;;4992849;28;20102;-27
2023/11/22 11:36:24;;;;;;;;;;;7.80;88.60;;;;;;4993333;28;20100;-28
2023/11/22 11:38:51;;;;;;;9.25;6.97;;;7.90;88.60;;;;;;4992562;28;19906;-27
2023/11/22 11:41:17;;;;;;;11.15;7.80;;;7.90;88.50;;;;;;4992318;28;20045;-35
2023/11/22 11:43:47;;;;;;;10.23;7.35;;;7.90;88.50;;;;;;4992352;28;20038;-27
2023/11/22 11:46:14;;;;;;;11.50;8.00;;;7.80;88.50;;;;;;4992431;28;20050;-29
2023/11/22 11:48:44;;;;;;;11.52;8.70;;;7.90;88.50;;;;;;4992414;28;20030;-28
2023/11/22 11:51:13;;;;;;;12.82;8.25;;;7.80;88.40;;;;;;4992442;28;20027;-30
2023/11/22 11:53:39;;;;;;;12.68;8.82;;;7.80;88.50;;;;;;4992552;28;20031;-29
2023/11/22 11:56:05;;;;;;;11.82;8.68;;;7.80;88.50;;;;;;4991754;28;20390;-30
2023/11/22 11:58:31;;;;;;;12.68;8.30;;;7.80;88.50;;;;;;4992404;28;20526;-27
2023/11/22 12:00:58;;;;;;;11.55;8.38;;;7.80;88.50;;;;;;4991030;28;20046;-29
2023/11/22 12:03:24;;;;;;;11.32;8.43;;;7.90;88.50;;;;;;4992306;28;20023;-27
2023/11/22 12:05:50;;;;;;;13.20;9.23;;;7.90;88.40;;;;;;4992378;28;20250;-28
2023/11/22 12:08:16;;;;;;;13.05;9.40;;;7.90;88.40;;;;;;4992581;28;20022;-30
2023/11/22 12:10:43;;;;;;;12.57;9.55;;;7.90;88.40;;;;;;4990861;28;20027;-30
2023/11/22 12:13:08;;;;;;;14.30;10.13;;;7.80;88.40;;;;;;4992234;28;20022;-27
2023/11/22 12:15:35;;;;;;;16.40;10.68;;;7.80;88.40;;;;;;4992199;28;20027;-35
2023/11/22 12:18:01;;;;;;;14.98;9.88;;;7.80;88.30;;;;;;4992213;28;20022;-28
2023/11/22 12:20:31;;;;;;;12.75;9.65;;;7.80;88.40;;;;;;4992007;28;20041;-28
2023/11/22 12:23:00;;;;;;;13.02;10.07;;;7.80;88.40;;;;;;4992063;28;20025;-27
2023/11/22 12:25:27;;;;;;;14.75;10.13;;;7.80;88.20;;;;;;4992102;28;20037;-28
2023/11/22 12:27:54;;;;;;;14.60;9.63;;;7.80;88.10;;;;;;4992254;28;20609;-33
2023/11/22 12:30:36;;;;;;;14.77;10.10;;;7.80;87.80;;;;;;4990486;28;20104;-31
2023/11/22 12:33:07;;;;;;;12.85;9.20;;;7.90;87.60;;;;;;4990492;28;20030;-27
2023/11/22 12:35:33;;;;;;;13.57;9.68;;;7.90;87.50;;;;;;4991975;28;20077;-29
2023/11/22 12:38:08;;;;;;;15.27;10.38;;;7.90;87.40;;;;;;4992041;28;20026;-27
2023/11/22 12:40:34;;;;;;;17.70;11.95;;;8.00;87.10;;;;;;4991891;28;20022;-31
2023/11/22 12:43:00;;;;;;;17.30;11.43;;;8.10;86.90;;;;;;4991989;28;20026;-26
2023/11/22 12:45:28;;;;;;;19.25;11.98;;;8.10;86.80;;;;;;4991905;28;20459;-27